site sitenws-alerts: Checking more than four warning/county codes can delay the loading of your pages. You should use a cron job to get the data.

Nearby METAR Weather Reports

 

KDMA - Davis/Tucson, Arizona, USA
Distance from station: W 21mi, 34km
Updated: 04/19/2019 4:58pm
Clear
Clear
 Wind from WNW
Wind: WNW 8 mph , 13 km/h
Temperature: 95°F , 35°C
Dew Point: 9°F , -13°C
Humidity: 4%
Barometer: 29.86 inHg , 1011.2 hPa
Clouds: Clear
Visibility: 10 miles , 16 km
2019/04/19 23:58 KDMA 192358Z AUTO 29007KT 10SM CLR 35/M13 A2986 RMK AO2 SLPNO T03521129 10357 20342 57022 $
KTUS - Tucson, Arizona, USA
Distance from station: W 26mi, 42km
Updated: 04/19/2019 4:53pm
Clear
Clear
 Wind from varies
Wind: varies 5 mph , 7 km/h
Temperature: 97°F , 36°C
Dew Point: 3°F , -16°C
Humidity: 3%
Barometer: 29.88 inHg , 1011.9 hPa
Clouds: Clear
Visibility: 10 miles , 16 km
2019/04/19 23:53 KTUS 192353Z VRB04KT 10SM CLR 36/M16 A2988 RMK AO2 SLP073 T03561156 10361 20322 56023
 
KALK - Pioneer Airfield, Arizona, USA
Distance from station: S 37mi, 60km
Updated: 04/19/2019 4:56pm
Clear
Clear
 Wind from S
Wind: S 9 mph , 15 km/h
Temperature: 84°F , 29°C
Dew Point: 9°F , -13°C
Humidity: 5%
Barometer: 30.04 inHg , 1017.3 hPa
Clouds: Clear
Visibility: 10 miles , 16 km
2019/04/19 23:56 KALK 192356Z AUTO 19008KT 10SM CLR 29/M13 A3004 RMK AO2 SLP088 T02891128 10306 20267 56018
KRYN - Tucson/Ryan Fld, Arizona, USA
Distance from station: W 39mi, 62km
Updated: 04/19/2019 4:45pm
Clear
Clear
 Wind from SW
Wind: SW 13 mph , 20 km/h, Gust: 20 mph , 31 km/h
Temperature: 97°F , 36°C
Dew Point: 14°F , -10°C
Humidity: 5%
Barometer: 29.86 inHg , 1011.2 hPa
Clouds: Clear
Visibility: 10 miles , 16 km
2019/04/19 23:45 KRYN 192345Z 22011G17KT 10SM CLR 36/M10 A2986
 
KFHU - Fort Huachuca, Arizona, USA
Distance from station: SSE 39mi, 63km
Updated: 04/19/2019 4:58pm
Clear
Clear
 Wind from S
Wind: S 9 mph , 15 km/h
Temperature: 86°F , 30°C
Dew Point: 7°F , -14°C
Humidity: 5%
Barometer: 30.04 inHg , 1017.3 hPa
Clouds: Clear
Visibility: 10 miles , 16 km
2019/04/19 23:58 KFHU 192358Z AUTO 17008KT 10SM CLR 30/M14 A3004 RMK AO2 SLPNO T02981139 10308 20271 57020
KOLS - Nogales, Arizona, USA
Distance from station: SSW 54mi, 86km
Updated: 04/19/2019 4:54pm
Clear
Clear
 Wind from SSW
Wind: SSW 10 mph , 17 km/h
Temperature: 90°F , 32°C
Dew Point: 5°F , -15°C
Humidity: 4%
Barometer: 29.97 inHg , 1014.9 hPa
Clouds: Clear
Visibility: 10 miles , 16 km
2019/04/19 23:54 KOLS 192354Z AUTO 20009KT 10SM CLR 32/M15 A2997 RMK AO2 SLP091 T03221150 10339 20300 56018
 
KDUG - Douglas Bisbee, Arizona, USA
Distance from station: SE 71mi, 114km
Updated: 04/19/2019 4:56pm
Clear
Clear
 Wind from S
Wind: S 12 mph , 19 km/h
Temperature: 84°F , 29°C
Dew Point: 12°F , -11°C
Humidity: 6%
Barometer: 30.01 inHg , 1016.3 hPa
Clouds: Clear
Visibility: 10 miles , 16 km
2019/04/19 23:56 KDUG 192356Z AUTO 19010KT 10SM CLR 29/M11 A3001 RMK AO2 SLP115 T02941106 10306 20267 56020
KSAD - Safford, Arizona, USA
Distance from station: NE 71mi, 114km
Updated: 04/19/2019 4:51pm
Clear
Clear
 Wind from varies
Wind: varies 3 mph , 6 km/h
Temperature: 91°F , 33°C
Dew Point: 5°F , -15°C
Humidity: 4%
Barometer: 29.93 inHg , 1013.5 hPa
Clouds: Clear
Visibility: 10 miles , 16 km
2019/04/19 23:51 KSAD 192351Z AUTO VRB03KT 10SM CLR 33/M15 A2993 RMK AO2 SLP094 T03281150 10333 20278 56024
 
KCGZ - Casa Granda, Arizona, USA
Distance from station: NW 93mi, 149km
Updated: 04/19/2019 4:56pm
Clear
Clear
 Wind from W
Wind: W 8 mph , 13 km/h
Temperature: 97°F , 36°C
Dew Point: 28°F , -2°C
Humidity: 9%
Barometer: 29.80 inHg , 1009.1 hPa
Clouds: Clear
Visibility: 10 miles , 16 km
2019/04/19 23:56 KCGZ 192356Z AUTO 27007KT 240V300 10SM CLR 36/M02 A2980 RMK AO2 SLP076 6//// T03611022 10367 20294 56029 PNO $
KLSB - Lordsburg, New Mexico, USA
Distance from station: E 106mi, 171km
Updated: 02/26/2018 1:22pm
NOT Current
Clear
Clear
 Wind from ESE
Wind: ESE 13 mph , 20 km/h, Gust: 18 mph , 30 km/h
Temperature: 63°F , 17°C
Dew Point: 10°F , -12°C
Humidity: 13%
Barometer: 30.04 inHg , 1017.3 hPa
Clouds: Clear
Visibility: 10 miles , 16 km
2018/02/26 20:22 KLSB 262022Z AUTO 11011G16KT 090V150 10SM CLR 17/M12 A3004
 
KPHX - Phoenix/Sky Hrbr, Arizona, USA
Distance from station: NW 126mi, 202km
Updated: 04/19/2019 4:51pm
Partly cloudy
Partly cloudy
 Wind from S
Wind: S 6 mph , 9 km/h
Temperature: 97°F , 36°C
Dew Point: 19°F , -7°C
Humidity: 6%
Barometer: 29.76 inHg , 1007.8 hPa
Clouds: Partly cloudy
Visibility: 10 miles , 16 km
Cloud details: Few Clouds 13000 ft
Partly cloudy 18000 ft
Partly cloudy 27000 ft
2019/04/19 23:51 KPHX 192351Z 17005KT 10SM FEW130 SCT180 SCT270 36/M07 A2976 RMK AO2 SLP060 T03611067 10372 20317 56030
KGXF - Gila Bend (aaf), Arizona, USA
Distance from station: WNW 139mi, 223km
Updated: 04/19/2019 4:58pm
Few Clouds
Few Clouds
 Wind from WSW
Wind: WSW 18 mph , 30 km/h, Gust: 22 mph , 35 km/h
Temperature: 100°F , 38°C
Dew Point: 16°F , -9°C
Humidity: 4%
Barometer: 29.73 inHg , 1006.8 hPa
Clouds: Few Clouds
Visibility: 10 miles , 16 km
Cloud details: Few Clouds 17000 ft
2019/04/19 23:58 KGXF 192358Z 24016G19KT 10SM FEW170 38/M09 A2973 RMK AO2A ACC DSNT ALQDS SLPNO T03821088 10394 20338 57025
 
KSVC - Silver City, New Mexico, USA
Distance from station: ENE 142mi, 228km
Updated: 04/19/2019 5:15pm
Clear
Clear
 Wind from SSE
Wind: SSE 3 mph , 6 km/h
Temperature: 77°F , 25°C
Dew Point: 16°F , -9°C
Humidity: 10%
Barometer: 30.12 inHg , 1020 hPa
Clouds: Clear
Visibility: 10 miles , 16 km
2019/04/20 00:15 KSVC 200015Z AUTO 16003KT 10SM CLR 25/M09 A3012 RMK AO2 T02531090
KLUF - Luke Afb/Glendal, Arizona, USA
Distance from station: NW 144mi, 232km
Updated: 04/19/2019 4:58pm
Clear
Clear
 Wind from N
Wind: N 6 mph , 9 km/h
Temperature: 97°F , 36°C
Dew Point: 19°F , -7°C
Humidity: 6%
Barometer: 29.75 inHg , 1007.5 hPa
Clouds: Clear
Visibility: 10 miles , 16 km
2019/04/19 23:58 KLUF 192358Z AUTO 01005KT 10SM CLR 36/M07 A2975 RMK AO2 SLPNO T03591073 10366 20354 57030